sensor_id;sensor_type;location;lat;lon;timestamp;pressure;altitude;pressure_sealevel;temperature;humidity
35655;BME280;21773;50.010;19.972;2023-04-22T00:00:50;98641.84;;;12.71;47.28
35655;BME280;21773;50.010;19.972;2023-04-22T00:03:57;98649.97;;;12.71;47.69
35655;BME280;21773;50.010;19.972;2023-04-22T00:07:01;98642.84;;;12.65;47.61
35655;BME280;21773;50.010;19.972;2023-04-22T00:10:05;98645.22;;;12.49;48.18
35655;BME280;21773;50.010;19.972;2023-04-22T00:13:10;98653.81;;;12.46;48.36
35655;BME280;21773;50.010;19.972;2023-04-22T00:16:14;98651.94;;;12.47;48.49
35655;BME280;21773;50.010;19.972;2023-04-22T00:19:17;98647.84;;;12.44;48.64
35655;BME280;21773;50.010;19.972;2023-04-22T00:22:20;98643.72;;;12.42;48.57
35655;BME280;21773;50.010;19.972;2023-04-22T00:25:24;98645.03;;;12.39;48.59
35655;BME280;21773;50.010;19.972;2023-04-22T00:28:29;98637.28;;;12.31;48.84
35655;BME280;21773;50.010;19.972;2023-04-22T00:31:32;98638.81;;;12.27;48.91
35655;BME280;21773;50.010;19.972;2023-04-22T00:34:35;98644.81;;;12.29;48.49
35655;BME280;21773;50.010;19.972;2023-04-22T00:37:39;98642.81;;;12.25;48.66
35655;BME280;21773;50.010;19.972;2023-04-22T00:40:43;98635.78;;;12.12;48.85
35655;BME280;21773;50.010;19.972;2023-04-22T00:43:49;98637.31;;;12.08;49.28
35655;BME280;21773;50.010;19.972;2023-04-22T00:46:54;98645.69;;;12.06;49.04
35655;BME280;21773;50.010;19.972;2023-04-22T00:49:59;98640.75;;;12.03;48.63
35655;BME280;21773;50.010;19.972;2023-04-22T00:53:03;98639.94;;;11.91;49.14
35655;BME280;21773;50.010;19.972;2023-04-22T00:56:06;98642.53;;;11.86;49.04
35655;BME280;21773;50.010;19.972;2023-04-22T00:59:12;98629.34;;;11.66;49.25
35655;BME280;21773;50.010;19.972;2023-04-22T01:02:16;98642.59;;;11.56;49.69
35655;BME280;21773;50.010;19.972;2023-04-22T01:05:20;98640.13;;;11.55;49.75
35655;BME280;21773;50.010;19.972;2023-04-22T01:08:27;98645.53;;;11.55;49.89
35655;BME280;21773;50.010;19.972;2023-04-22T01:11:31;98639.69;;;11.58;49.72
35655;BME280;21773;50.010;19.972;2023-04-22T01:14:36;98637.66;;;11.65;49.41
35655;BME280;21773;50.010;19.972;2023-04-22T01:17:40;98638.84;;;11.69;49.44
35655;BME280;21773;50.010;19.972;2023-04-22T01:20:44;98641.47;;;11.76;49.35
35655;BME280;21773;50.010;19.972;2023-04-22T01:23:49;98642.25;;;11.64;49.51
35655;BME280;21773;50.010;19.972;2023-04-22T01:26:53;98640.13;;;11.55;49.56
35655;BME280;21773;50.010;19.972;2023-04-22T01:29:56;98651.28;;;11.47;49.79
35655;BME280;21773;50.010;19.972;2023-04-22T01:33:00;98646.94;;;11.46;49.62
35655;BME280;21773;50.010;19.972;2023-04-22T01:36:04;98643.06;;;11.42;49.97
35655;BME280;21773;50.010;19.972;2023-04-22T01:39:09;98643.41;;;11.34;49.95
35655;BME280;21773;50.010;19.972;2023-04-22T01:42:12;98650.91;;;11.32;49.95
35655;BME280;21773;50.010;19.972;2023-04-22T01:45:16;98644.91;;;11.29;50.01
35655;BME280;21773;50.010;19.972;2023-04-22T01:48:20;98647.59;;;11.29;49.98
35655;BME280;21773;50.010;19.972;2023-04-22T01:51:23;98651.59;;;11.27;49.92
35655;BME280;21773;50.010;19.972;2023-04-22T01:54:28;98653.69;;;11.25;49.85
35655;BME280;21773;50.010;19.972;2023-04-22T01:57:31;98650.78;;;11.26;49.64
35655;BME280;21773;50.010;19.972;2023-04-22T02:00:35;98650.31;;;11.29;49.68
35655;BME280;21773;50.010;19.972;2023-04-22T02:03:38;98650.19;;;11.24;49.82
35655;BME280;21773;50.010;19.972;2023-04-22T02:06:44;98646.31;;;11.20;49.91
35655;BME280;21773;50.010;19.972;2023-04-22T02:09:48;98648.50;;;11.12;49.97
35655;BME280;21773;50.010;19.972;2023-04-22T02:12:52;98650.94;;;11.02;50.08
35655;BME280;21773;50.010;19.972;2023-04-22T02:15:55;98647.63;;;10.88;50.29
35655;BME280;21773;50.010;19.972;2023-04-22T02:18:58;98646.41;;;10.72;50.44
35655;BME280;21773;50.010;19.972;2023-04-22T02:22:02;98635.34;;;10.62;50.81
35655;BME280;21773;50.010;19.972;2023-04-22T02:25:08;98639.19;;;10.55;51.14
35655;BME280;21773;50.010;19.972;2023-04-22T02:28:11;98632.13;;;10.54;50.86
35655;BME280;21773;50.010;19.972;2023-04-22T02:31:15;98637.16;;;10.50;51.17
35655;BME280;21773;50.010;19.972;2023-04-22T02:34:18;98637.75;;;10.52;51.27
35655;BME280;21773;50.010;19.972;2023-04-22T02:37:21;98643.50;;;10.56;50.78
35655;BME280;21773;50.010;19.972;2023-04-22T02:40:26;98634.06;;;10.65;50.66
35655;BME280;21773;50.010;19.972;2023-04-22T02:43:29;98635.25;;;10.69;50.61
35655;BME280;21773;50.010;19.972;2023-04-22T02:46:33;98633.75;;;10.73;50.40
35655;BME280;21773;50.010;19.972;2023-04-22T02:49:36;98630.56;;;10.76;50.27
35655;BME280;21773;50.010;19.972;2023-04-22T02:52:40;98635.38;;;10.74;50.38
35655;BME280;21773;50.010;19.972;2023-04-22T02:55:45;98638.63;;;10.64;50.51
35655;BME280;21773;50.010;19.972;2023-04-22T02:58:48;98636.47;;;10.55;50.75
35655;BME280;21773;50.010;19.972;2023-04-22T03:01:51;98636.69;;;10.53;50.45
35655;BME280;21773;50.010;19.972;2023-04-22T03:05:11;98633.66;;;10.50;50.64
35655;BME280;21773;50.010;19.972;2023-04-22T03:08:14;98638.88;;;10.45;50.67
35655;BME280;21773;50.010;19.972;2023-04-22T03:11:18;98633.34;;;10.39;50.71
35655;BME280;21773;50.010;19.972;2023-04-22T03:14:22;98643.78;;;10.36;50.92
35655;BME280;21773;50.010;19.972;2023-04-22T03:17:27;98646.47;;;10.36;50.63
35655;BME280;21773;50.010;19.972;2023-04-22T03:20:32;98649.38;;;10.34;50.84
35655;BME280;21773;50.010;19.972;2023-04-22T03:23:35;98651.41;;;10.39;50.72
35655;BME280;21773;50.010;19.972;2023-04-22T03:26:40;98650.22;;;10.35;50.80
35655;BME280;21773;50.010;19.972;2023-04-22T03:29:44;98645.72;;;10.29;50.94
35655;BME280;21773;50.010;19.972;2023-04-22T03:32:47;98648.25;;;10.24;51.05
35655;BME280;21773;50.010;19.972;2023-04-22T03:35:55;98650.94;;;10.24;51.10
35655;BME280;21773;50.010;19.972;2023-04-22T03:38:58;98656.56;;;10.22;51.13
35655;BME280;21773;50.010;19.972;2023-04-22T03:42:05;98655.97;;;10.20;51.04
35655;BME280;21773;50.010;19.972;2023-04-22T03:45:14;98653.88;;;10.22;51.11
35655;BME280;21773;50.010;19.972;2023-04-22T03:48:22;98656.94;;;10.26;50.83
35655;BME280;21773;50.010;19.972;2023-04-22T03:51:27;98664.22;;;10.25;50.88
35655;BME280;21773;50.010;19.972;2023-04-22T03:54:33;98655.06;;;10.26;50.97
35655;BME280;21773;50.010;19.972;2023-04-22T03:57:38;98653.28;;;10.20;51.21
35655;BME280;21773;50.010;19.972;2023-04-22T04:00:43;98659.25;;;10.22;51.33
35655;BME280;21773;50.010;19.972;2023-04-22T04:03:50;98665.03;;;10.26;51.32
35655;BME280;21773;50.010;19.972;2023-04-22T04:06:55;98666.13;;;10.36;51.09
35655;BME280;21773;50.010;19.972;2023-04-22T04:10:00;98661.81;;;10.35;51.40
35655;BME280;21773;50.010;19.972;2023-04-22T04:13:05;98655.13;;;10.38;51.30
35655;BME280;21773;50.010;19.972;2023-04-22T04:16:19;98668.53;;;10.45;51.38
35655;BME280;21773;50.010;19.972;2023-04-22T04:19:28;98668.44;;;10.51;51.42
35655;BME280;21773;50.010;19.972;2023-04-22T04:22:32;98675.84;;;10.56;51.30
35655;BME280;21773;50.010;19.972;2023-04-22T04:25:36;98669.91;;;10.65;51.23
35655;BME280;21773;50.010;19.972;2023-04-22T04:28:45;98665.63;;;10.76;50.99
35655;BME280;21773;50.010;19.972;2023-04-22T04:31:51;98670.84;;;10.89;50.81
35655;BME280;21773;50.010;19.972;2023-04-22T04:34:58;98673.00;;;10.99;50.52
35655;BME280;21773;50.010;19.972;2023-04-22T04:38:03;98673.97;;;11.04;50.50
35655;BME280;21773;50.010;19.972;2023-04-22T04:41:08;98675.28;;;11.13;50.63
35655;BME280;21773;50.010;19.972;2023-04-22T04:44:14;98659.31;;;11.12;50.58
35655;BME280;21773;50.010;19.972;2023-04-22T04:47:18;98680.59;;;11.32;50.58
35655;BME280;21773;50.010;19.972;2023-04-22T04:50:21;98684.72;;;11.46;50.39
35655;BME280;21773;50.010;19.972;2023-04-22T04:53:25;98666.44;;;11.48;50.30
35655;BME280;21773;50.010;19.972;2023-04-22T04:56:30;98682.09;;;11.81;50.05
35655;BME280;21773;50.010;19.972;2023-04-22T04:59:35;98678.22;;;12.00;49.66
35655;BME280;21773;50.010;19.972;2023-04-22T05:02:39;98676.44;;;12.17;49.51
35655;BME280;21773;50.010;19.972;2023-04-22T05:05:43;98672.88;;;12.40;48.98
35655;BME280;21773;50.010;19.972;2023-04-22T05:08:50;98680.22;;;12.68;48.22
35655;BME280;21773;50.010;19.972;2023-04-22T05:11:54;98677.50;;;12.96;47.95
35655;BME280;21773;50.010;19.972;2023-04-22T05:15:01;98683.75;;;13.25;46.57
35655;BME280;21773;50.010;19.972;2023-04-22T05:18:05;98679.84;;;13.49;47.04
35655;BME280;21773;50.010;19.972;2023-04-22T05:21:08;98686.50;;;13.75;47.16
35655;BME280;21773;50.010;19.972;2023-04-22T05:24:13;98684.09;;;13.95;47.11
35655;BME280;21773;50.010;19.972;2023-04-22T05:27:16;98692.31;;;14.17;46.98
35655;BME280;21773;50.010;19.972;2023-04-22T05:30:21;98690.47;;;14.39;45.03
35655;BME280;21773;50.010;19.972;2023-04-22T05:33:25;98681.53;;;14.60;42.89
35655;BME280;21773;50.010;19.972;2023-04-22T05:36:28;98685.53;;;14.80;41.80
35655;BME280;21773;50.010;19.972;2023-04-22T05:39:33;98680.91;;;15.02;41.15
35655;BME280;21773;50.010;19.972;2023-04-22T05:42:40;98683.31;;;15.25;40.76
35655;BME280;21773;50.010;19.972;2023-04-22T05:45:46;98687.34;;;15.49;40.51
35655;BME280;21773;50.010;19.972;2023-04-22T05:48:50;98685.94;;;15.74;39.83
35655;BME280;21773;50.010;19.972;2023-04-22T05:52:14;98680.41;;;15.95;39.86
35655;BME280;21773;50.010;19.972;2023-04-22T05:55:37;98681.38;;;16.16;40.18
35655;BME280;21773;50.010;19.972;2023-04-22T05:58:43;98682.59;;;16.40;40.10
35655;BME280;21773;50.010;19.972;2023-04-22T06:01:51;98691.19;;;16.69;39.62
35655;BME280;21773;50.010;19.972;2023-04-22T06:04:55;98692.59;;;16.82;41.10
35655;BME280;21773;50.010;19.972;2023-04-22T06:07:59;98688.56;;;16.95;39.95
35655;BME280;21773;50.010;19.972;2023-04-22T06:11:03;98689.41;;;17.15;40.06
35655;BME280;21773;50.010;19.972;2023-04-22T06:14:09;98689.47;;;17.36;39.37
35655;BME280;21773;50.010;19.972;2023-04-22T06:17:16;98682.41;;;17.55;38.09
35655;BME280;21773;50.010;19.972;2023-04-22T06:20:19;98701.25;;;17.87;38.10
35655;BME280;21773;50.010;19.972;2023-04-22T06:23:23;98690.34;;;18.02;37.13
35655;BME280;21773;50.010;19.972;2023-04-22T06:26:26;98694.09;;;18.31;36.70
35655;BME280;21773;50.010;19.972;2023-04-22T06:29:30;98697.59;;;18.57;35.62
35655;BME280;21773;50.010;19.972;2023-04-22T06:32:34;98693.44;;;18.80;35.06
35655;BME280;21773;50.010;19.972;2023-04-22T06:35:38;98700.69;;;19.04;34.70
35655;BME280;21773;50.010;19.972;2023-04-22T06:38:41;98697.28;;;19.28;33.74
35655;BME280;21773;50.010;19.972;2023-04-22T06:41:57;98675.81;;;19.50;33.27
35655;BME280;21773;50.010;19.972;2023-04-22T06:45:20;98694.41;;;19.87;32.52
35655;BME280;21773;50.010;19.972;2023-04-22T06:48:35;98684.13;;;20.08;32.24
35655;BME280;21773;50.010;19.972;2023-04-22T06:52:17;98690.06;;;20.44;32.41
35655;BME280;21773;50.010;19.972;2023-04-22T06:55:22;98688.81;;;20.79;32.47
35655;BME280;21773;50.010;19.972;2023-04-22T06:58:26;98687.69;;;21.03;31.62
35655;BME280;21773;50.010;19.972;2023-04-22T07:01:29;98680.53;;;21.26;30.90
35655;BME280;21773;50.010;19.972;2023-04-22T07:04:34;98683.44;;;21.53;31.73
35655;BME280;21773;50.010;19.972;2023-04-22T07:07:40;98686.97;;;21.73;30.30
35655;BME280;21773;50.010;19.972;2023-04-22T07:10:49;98686.13;;;21.91;29.41
35655;BME280;21773;50.010;19.972;2023-04-22T07:14:05;98687.16;;;22.14;28.98
35655;BME280;21773;50.010;19.972;2023-04-22T07:17:08;98686.81;;;22.15;29.89
35655;BME280;21773;50.010;19.972;2023-04-22T07:20:13;98688.47;;;22.43;29.52
35655;BME280;21773;50.010;19.972;2023-04-22T07:23:17;98680.38;;;22.66;29.13
35655;BME280;21773;50.010;19.972;2023-04-22T07:26:20;98693.50;;;22.69;28.21
35655;BME280;21773;50.010;19.972;2023-04-22T07:29:23;98697.69;;;22.94;28.27
35655;BME280;21773;50.010;19.972;2023-04-22T07:32:27;98694.19;;;23.29;28.78
35655;BME280;21773;50.010;19.972;2023-04-22T07:35:31;98698.78;;;23.69;28.77
35655;BME280;21773;50.010;19.972;2023-04-22T07:38:35;98672.25;;;24.04;28.06
35655;BME280;21773;50.010;19.972;2023-04-22T07:41:38;98683.88;;;24.46;27.20
35655;BME280;21773;50.010;19.972;2023-04-22T07:44:41;98678.34;;;24.37;25.49
35655;BME280;21773;50.010;19.972;2023-04-22T07:47:45;98670.03;;;24.29;25.78
35655;BME280;21773;50.010;19.972;2023-04-22T07:50:49;98685.00;;;24.45;25.82
35655;BME280;21773;50.010;19.972;2023-04-22T07:53:53;98680.16;;;24.50;25.58
35655;BME280;21773;50.010;19.972;2023-04-22T07:56:56;98687.06;;;24.70;26.03
35655;BME280;21773;50.010;19.972;2023-04-22T08:00:00;98681.25;;;24.80;25.35
35655;BME280;21773;50.010;19.972;2023-04-22T08:03:12;98685.09;;;25.19;26.07
35655;BME280;21773;50.010;19.972;2023-04-22T08:06:17;98689.53;;;25.45;24.03
35655;BME280;21773;50.010;19.972;2023-04-22T08:09:21;98681.28;;;25.63;22.97
35655;BME280;21773;50.010;19.972;2023-04-22T08:12:24;98682.06;;;25.89;22.88
35655;BME280;21773;50.010;19.972;2023-04-22T08:15:28;98685.78;;;26.02;23.32
35655;BME280;21773;50.010;19.972;2023-04-22T08:18:31;98687.56;;;26.23;23.79
35655;BME280;21773;50.010;19.972;2023-04-22T08:21:36;98692.16;;;26.57;23.27
35655;BME280;21773;50.010;19.972;2023-04-22T08:24:39;98687.22;;;26.71;22.74
35655;BME280;21773;50.010;19.972;2023-04-22T08:27:42;98682.53;;;27.01;23.34
35655;BME280;21773;50.010;19.972;2023-04-22T08:30:46;98678.16;;;27.00;20.48
35655;BME280;21773;50.010;19.972;2023-04-22T08:33:49;98678.41;;;27.07;22.16
35655;BME280;21773;50.010;19.972;2023-04-22T08:36:54;98686.44;;;27.30;22.14
35655;BME280;21773;50.010;19.972;2023-04-22T08:39:57;98690.31;;;27.58;21.76
35655;BME280;21773;50.010;19.972;2023-04-22T08:43:02;98685.00;;;27.86;20.92
35655;BME280;21773;50.010;19.972;2023-04-22T08:46:06;98674.25;;;28.05;20.37
35655;BME280;21773;50.010;19.972;2023-04-22T08:49:10;98679.97;;;28.21;20.98
35655;BME280;21773;50.010;19.972;2023-04-22T08:52:16;98676.03;;;28.22;18.43
35655;BME280;21773;50.010;19.972;2023-04-22T08:55:19;98677.47;;;28.28;19.93
35655;BME280;21773;50.010;19.972;2023-04-22T08:58:22;98674.81;;;27.78;18.72
35655;BME280;21773;50.010;19.972;2023-04-22T09:01:27;98684.31;;;27.47;17.61
35655;BME280;21773;50.010;19.972;2023-04-22T09:04:32;98687.47;;;27.67;18.07
35655;BME280;21773;50.010;19.972;2023-04-22T09:07:37;98681.31;;;27.82;18.60
35655;BME280;21773;50.010;19.972;2023-04-22T09:10:42;98677.28;;;27.91;18.26
35655;BME280;21773;50.010;19.972;2023-04-22T09:13:46;98674.28;;;27.84;18.18
35655;BME280;21773;50.010;19.972;2023-04-22T09:16:49;98668.47;;;28.10;19.40
35655;BME280;21773;50.010;19.972;2023-04-22T09:19:56;98672.19;;;28.47;18.79
35655;BME280;21773;50.010;19.972;2023-04-22T09:23:03;98672.19;;;28.47;18.11
35655;BME280;21773;50.010;19.972;2023-04-22T09:26:07;98661.03;;;28.35;17.96
35655;BME280;21773;50.010;19.972;2023-04-22T09:29:13;98654.84;;;28.38;19.16
35655;BME280;21773;50.010;19.972;2023-04-22T09:32:17;98659.78;;;28.32;19.61
35655;BME280;21773;50.010;19.972;2023-04-22T09:35:28;98656.34;;;28.60;19.37
35655;BME280;21773;50.010;19.972;2023-04-22T09:38:34;98654.72;;;28.71;19.50
35655;BME280;21773;50.010;19.972;2023-04-22T09:41:38;98649.44;;;28.90;18.22
35655;BME280;21773;50.010;19.972;2023-04-22T09:44:43;98648.25;;;28.67;18.05
35655;BME280;21773;50.010;19.972;2023-04-22T09:47:47;98645.44;;;28.30;17.09
35655;BME280;21773;50.010;19.972;2023-04-22T09:50:50;98645.72;;;28.05;18.17
35655;BME280;21773;50.010;19.972;2023-04-22T09:54:00;98638.53;;;28.36;19.05
35655;BME280;21773;50.010;19.972;2023-04-22T09:57:07;98634.03;;;28.32;17.71
35655;BME280;21773;50.010;19.972;2023-04-22T10:00:15;98636.78;;;28.20;17.16
35655;BME280;21773;50.010;19.972;2023-04-22T10:03:19;98634.97;;;28.48;19.73
35655;BME280;21773;50.010;19.972;2023-04-22T10:06:23;98616.00;;;28.38;17.86
35655;BME280;21773;50.010;19.972;2023-04-22T10:09:27;98637.47;;;27.96;17.77
35655;BME280;21773;50.010;19.972;2023-04-22T10:12:31;98632.91;;;28.00;17.25
35655;BME280;21773;50.010;19.972;2023-04-22T10:15:40;98629.66;;;27.65;17.65
35655;BME280;21773;50.010;19.972;2023-04-22T10:18:45;98571.72;;;27.60;17.91
35655;BME280;21773;50.010;19.972;2023-04-22T10:21:53;98621.72;;;28.09;16.99
35655;BME280;21773;50.010;19.972;2023-04-22T10:24:59;98619.97;;;28.04;17.43
35655;BME280;21773;50.010;19.972;2023-04-22T10:28:03;98615.31;;;27.42;17.97
35655;BME280;21773;50.010;19.972;2023-04-22T10:31:19;98625.31;;;27.35;17.45
35655;BME280;21773;50.010;19.972;2023-04-22T10:34:23;98607.84;;;27.01;18.10
35655;BME280;21773;50.010;19.972;2023-04-22T10:37:27;98615.88;;;27.36;17.96
35655;BME280;21773;50.010;19.972;2023-04-22T10:40:34;98619.59;;;27.19;16.82
35655;BME280;21773;50.010;19.972;2023-04-22T10:43:41;98611.59;;;26.67;19.00
35655;BME280;21773;50.010;19.972;2023-04-22T10:46:59;98606.94;;;26.13;18.46
35655;BME280;21773;50.010;19.972;2023-04-22T10:50:11;98603.09;;;25.88;17.53
35655;BME280;21773;50.010;19.972;2023-04-22T10:53:33;98609.09;;;26.74;19.16
35655;BME280;21773;50.010;19.972;2023-04-22T10:56:59;98614.13;;;26.81;17.07
35655;BME280;21773;50.010;19.972;2023-04-22T11:00:23;98611.94;;;27.37;18.90
35655;BME280;21773;50.010;19.972;2023-04-22T11:03:27;98600.63;;;27.83;17.07
35655;BME280;21773;50.010;19.972;2023-04-22T11:06:32;98603.50;;;27.75;17.94
35655;BME280;21773;50.010;19.972;2023-04-22T11:09:38;98594.16;;;28.24;18.71
35655;BME280;21773;50.010;19.972;2023-04-22T11:12:43;98595.28;;;28.11;17.52
35655;BME280;21773;50.010;19.972;2023-04-22T11:15:48;98594.28;;;28.28;18.51
35655;BME280;21773;50.010;19.972;2023-04-22T11:18:52;98591.78;;;28.71;17.46
35655;BME280;21773;50.010;19.972;2023-04-22T11:21:55;98587.94;;;28.52;17.28
35655;BME280;21773;50.010;19.972;2023-04-22T11:24:59;98581.22;;;28.65;16.63
35655;BME280;21773;50.010;19.972;2023-04-22T11:28:04;98586.66;;;28.61;16.84
35655;BME280;21773;50.010;19.972;2023-04-22T11:31:08;98562.50;;;28.25;17.42
35655;BME280;21773;50.010;19.972;2023-04-22T11:34:11;98577.31;;;28.29;16.44
35655;BME280;21773;50.010;19.972;2023-04-22T11:37:17;98579.84;;;28.34;16.30
35655;BME280;21773;50.010;19.972;2023-04-22T11:40:21;98568.78;;;28.34;16.07
35655;BME280;21773;50.010;19.972;2023-04-22T11:43:33;98561.34;;;28.87;17.24
35655;BME280;21773;50.010;19.972;2023-04-22T11:46:36;98555.44;;;29.28;15.38
35655;BME280;21773;50.010;19.972;2023-04-22T11:49:40;98554.66;;;29.56;15.41
35655;BME280;21773;50.010;19.972;2023-04-22T11:52:46;98562.38;;;29.62;16.18
35655;BME280;21773;50.010;19.972;2023-04-22T11:55:50;98566.97;;;29.70;16.63
35655;BME280;21773;50.010;19.972;2023-04-22T11:58:55;98546.34;;;29.99;16.51
35655;BME280;21773;50.010;19.972;2023-04-22T12:01:58;98554.50;;;30.39;16.98
35655;BME280;21773;50.010;19.972;2023-04-22T12:05:02;98548.97;;;30.74;17.07
35655;BME280;21773;50.010;19.972;2023-04-22T12:08:07;98538.09;;;30.85;16.02
35655;BME280;21773;50.010;19.972;2023-04-22T12:11:12;98550.81;;;31.02;15.88
35655;BME280;21773;50.010;19.972;2023-04-22T12:14:16;98553.81;;;29.83;14.54
35655;BME280;21773;50.010;19.972;2023-04-22T12:17:22;98528.06;;;29.55;14.99
35655;BME280;21773;50.010;19.972;2023-04-22T12:20:31;98536.97;;;29.48;14.86
35655;BME280;21773;50.010;19.972;2023-04-22T12:23:40;98546.69;;;29.54;14.88
35655;BME280;21773;50.010;19.972;2023-04-22T12:26:44;98545.75;;;29.78;16.40
35655;BME280;21773;50.010;19.972;2023-04-22T12:29:53;98541.94;;;29.98;15.04
35655;BME280;21773;50.010;19.972;2023-04-22T12:32:57;98542.06;;;29.74;14.23
35655;BME280;21773;50.010;19.972;2023-04-22T12:36:00;98541.81;;;29.79;14.24
35655;BME280;21773;50.010;19.972;2023-04-22T12:39:04;98542.94;;;29.90;15.42
35655;BME280;21773;50.010;19.972;2023-04-22T12:42:08;98529.06;;;29.78;14.83
35655;BME280;21773;50.010;19.972;2023-04-22T12:45:12;98521.31;;;29.28;15.66
35655;BME280;21773;50.010;19.972;2023-04-22T12:48:17;98527.50;;;28.45;15.94
35655;BME280;21773;50.010;19.972;2023-04-22T12:51:20;98512.50;;;28.22;16.91
35655;BME280;21773;50.010;19.972;2023-04-22T12:54:24;98510.63;;;28.50;18.43
35655;BME280;21773;50.010;19.972;2023-04-22T12:57:27;98510.38;;;28.67;17.23
35655;BME280;21773;50.010;19.972;2023-04-22T13:00:32;98508.41;;;28.80;18.30
35655;BME280;21773;50.010;19.972;2023-04-22T13:03:35;98503.81;;;28.48;16.88
35655;BME280;21773;50.010;19.972;2023-04-22T13:06:39;98500.59;;;28.33;17.31
35655;BME280;21773;50.010;19.972;2023-04-22T13:09:45;98497.47;;;28.47;16.42
35655;BME280;21773;50.010;19.972;2023-04-22T13:12:48;98508.19;;;28.61;16.86
35655;BME280;21773;50.010;19.972;2023-04-22T13:15:53;98503.09;;;28.75;17.36
35655;BME280;21773;50.010;19.972;2023-04-22T13:18:57;98498.38;;;29.03;17.78
35655;BME280;21773;50.010;19.972;2023-04-22T13:22:01;98492.19;;;29.22;16.82
35655;BME280;21773;50.010;19.972;2023-04-22T13:25:05;98493.97;;;29.42;17.62
35655;BME280;21773;50.010;19.972;2023-04-22T13:28:08;98494.25;;;29.53;17.10
35655;BME280;21773;50.010;19.972;2023-04-22T13:31:14;98490.78;;;29.71;17.85
35655;BME280;21773;50.010;19.972;2023-04-22T13:34:17;98476.34;;;29.82;17.30
35655;BME280;21773;50.010;19.972;2023-04-22T13:37:21;98481.13;;;29.97;16.99
35655;BME280;21773;50.010;19.972;2023-04-22T13:40:24;98470.81;;;29.97;17.25
35655;BME280;21773;50.010;19.972;2023-04-22T13:43:28;98481.47;;;30.11;17.37
35655;BME280;21773;50.010;19.972;2023-04-22T13:46:33;98478.53;;;30.20;16.53
35655;BME280;21773;50.010;19.972;2023-04-22T13:49:36;98485.47;;;30.10;16.44
35655;BME280;21773;50.010;19.972;2023-04-22T13:52:40;98483.63;;;29.86;15.67
35655;BME280;21773;50.010;19.972;2023-04-22T13:55:43;98487.88;;;29.37;15.42
35655;BME280;21773;50.010;19.972;2023-04-22T13:58:46;98478.69;;;28.80;15.83
35655;BME280;21773;50.010;19.972;2023-04-22T14:01:51;98475.50;;;28.06;16.19
35655;BME280;21773;50.010;19.972;2023-04-22T14:04:54;98467.78;;;27.99;16.56
35655;BME280;21773;50.010;19.972;2023-04-22T14:07:58;98471.47;;;28.03;17.36
35655;BME280;21773;50.010;19.972;2023-04-22T14:11:02;98473.91;;;27.92;17.46
35655;BME280;21773;50.010;19.972;2023-04-22T14:14:06;98466.03;;;28.07;16.85
35655;BME280;21773;50.010;19.972;2023-04-22T14:17:11;98466.41;;;28.17;17.24
35655;BME280;21773;50.010;19.972;2023-04-22T14:20:14;98462.69;;;27.89;16.81
35655;BME280;21773;50.010;19.972;2023-04-22T14:23:18;98469.91;;;27.57;17.09
35655;BME280;21773;50.010;19.972;2023-04-22T14:26:21;98458.38;;;27.55;17.62
35655;BME280;21773;50.010;19.972;2023-04-22T14:29:25;98459.56;;;27.78;17.90
35655;BME280;21773;50.010;19.972;2023-04-22T14:32:32;98456.13;;;27.93;17.30
35655;BME280;21773;50.010;19.972;2023-04-22T14:35:35;98454.53;;;28.17;17.95
35655;BME280;21773;50.010;19.972;2023-04-22T14:38:39;98462.38;;;28.39;18.91
35655;BME280;21773;50.010;19.972;2023-04-22T14:41:43;98460.88;;;28.05;16.65
35655;BME280;21773;50.010;19.972;2023-04-22T14:44:46;98454.50;;;27.80;17.03
35655;BME280;21773;50.010;19.972;2023-04-22T14:47:51;98443.16;;;27.49;17.87
35655;BME280;21773;50.010;19.972;2023-04-22T14:50:54;98446.31;;;27.27;18.00
35655;BME280;21773;50.010;19.972;2023-04-22T14:53:58;98442.38;;;27.28;18.60
35655;BME280;21773;50.010;19.972;2023-04-22T14:57:01;98439.25;;;27.17;17.59
35655;BME280;21773;50.010;19.972;2023-04-22T15:00:06;98442.25;;;27.24;18.18
35655;BME280;21773;50.010;19.972;2023-04-22T15:03:11;98437.22;;;26.85;18.51
35655;BME280;21773;50.010;19.972;2023-04-22T15:06:15;98435.38;;;26.77;18.29
35655;BME280;21773;50.010;19.972;2023-04-22T15:09:18;98442.75;;;26.22;18.13
35655;BME280;21773;50.010;19.972;2023-04-22T15:12:21;98436.09;;;26.23;19.03
35655;BME280;21773;50.010;19.972;2023-04-22T15:15:25;98440.84;;;25.85;19.07
35655;BME280;21773;50.010;19.972;2023-04-22T15:18:29;98436.69;;;26.00;20.14
35655;BME280;21773;50.010;19.972;2023-04-22T15:21:33;98439.34;;;26.17;19.45
35655;BME280;21773;50.010;19.972;2023-04-22T15:24:36;98423.66;;;26.09;18.79
35655;BME280;21773;50.010;19.972;2023-04-22T15:27:40;98428.97;;;26.14;19.43
35655;BME280;21773;50.010;19.972;2023-04-22T15:30:43;98437.03;;;25.98;19.24
35655;BME280;21773;50.010;19.972;2023-04-22T15:33:48;98428.50;;;25.82;19.29
35655;BME280;21773;50.010;19.972;2023-04-22T15:36:51;98439.47;;;25.62;19.38
35655;BME280;21773;50.010;19.972;2023-04-22T15:39:55;98444.03;;;25.58;19.62
35655;BME280;21773;50.010;19.972;2023-04-22T15:42:58;98431.03;;;25.58;19.25
35655;BME280;21773;50.010;19.972;2023-04-22T15:46:02;98423.44;;;25.55;19.80
35655;BME280;21773;50.010;19.972;2023-04-22T15:49:06;98429.22;;;25.62;20.12
35655;BME280;21773;50.010;19.972;2023-04-22T15:52:10;98431.81;;;25.67;20.45
35655;BME280;21773;50.010;19.972;2023-04-22T15:55:13;98433.31;;;25.48;19.65
35655;BME280;21773;50.010;19.972;2023-04-22T15:58:16;98432.53;;;25.38;19.91
35655;BME280;21773;50.010;19.972;2023-04-22T16:01:20;98428.72;;;25.14;20.20
35655;BME280;21773;50.010;19.972;2023-04-22T16:04:25;98419.16;;;24.94;20.18
35655;BME280;21773;50.010;19.972;2023-04-22T16:07:29;98419.66;;;24.79;20.10